sensor_id;sensor_type;location;lat;lon;timestamp;P1;durP1;ratioP1;P2;durP2;ratioP2
66380;SDS011;53177;52.648;1.214;2024-02-26T00:01:25;11.18;;;2.50;;
66380;SDS011;53177;52.648;1.214;2024-02-26T00:03:51;6.75;;;2.28;;
66380;SDS011;53177;52.648;1.214;2024-02-26T00:06:17;9.57;;;2.77;;
66380;SDS011;53177;52.648;1.214;2024-02-26T00:08:43;8.85;;;2.35;;
66380;SDS011;53177;52.648;1.214;2024-02-26T00:11:09;7.20;;;2.30;;
66380;SDS011;53177;52.648;1.214;2024-02-26T00:13:34;9.67;;;2.30;;
66380;SDS011;53177;52.648;1.214;2024-02-26T00:16:00;11.80;;;2.20;;
66380;SDS011;53177;52.648;1.214;2024-02-26T00:18:25;11.02;;;2.20;;
66380;SDS011;53177;52.648;1.214;2024-02-26T00:20:51;8.90;;;2.30;;
66380;SDS011;53177;52.648;1.214;2024-02-26T00:23:16;10.80;;;2.27;;
66380;SDS011;53177;52.648;1.214;2024-02-26T00:25:41;7.20;;;2.13;;
66380;SDS011;53177;52.648;1.214;2024-02-26T00:28:08;8.73;;;2.75;;
66380;SDS011;53177;52.648;1.214;2024-02-26T00:30:34;9.27;;;2.25;;
66380;SDS011;53177;52.648;1.214;2024-02-26T00:32:59;7.68;;;2.00;;
66380;SDS011;53177;52.648;1.214;2024-02-26T00:35:25;9.07;;;2.17;;
66380;SDS011;53177;52.648;1.214;2024-02-26T00:37:50;8.37;;;1.77;;
66380;SDS011;53177;52.648;1.214;2024-02-26T00:40:15;7.80;;;2.00;;
66380;SDS011;53177;52.648;1.214;2024-02-26T00:42:41;7.97;;;2.13;;
66380;SDS011;53177;52.648;1.214;2024-02-26T00:45:11;7.68;;;1.60;;
66380;SDS011;53177;52.648;1.214;2024-02-26T00:47:41;9.68;;;2.00;;
66380;SDS011;53177;52.648;1.214;2024-02-26T00:50:07;6.70;;;2.28;;
66380;SDS011;53177;52.648;1.214;2024-02-26T00:52:33;9.30;;;2.07;;
66380;SDS011;53177;52.648;1.214;2024-02-26T00:54:59;8.90;;;2.53;;
66380;SDS011;53177;52.648;1.214;2024-02-26T00:57:24;8.73;;;2.20;;
66380;SDS011;53177;52.648;1.214;2024-02-26T00:59:50;6.93;;;1.88;;
66380;SDS011;53177;52.648;1.214;2024-02-26T01:02:15;8.70;;;2.00;;
66380;SDS011;53177;52.648;1.214;2024-02-26T01:04:41;10.17;;;2.00;;
66380;SDS011;53177;52.648;1.214;2024-02-26T01:07:06;7.07;;;2.23;;
66380;SDS011;53177;52.648;1.214;2024-02-26T01:09:32;7.10;;;1.80;;
66380;SDS011;53177;52.648;1.214;2024-02-26T01:11:57;8.23;;;1.90;;
66380;SDS011;53177;52.648;1.214;2024-02-26T01:14:22;7.13;;;2.17;;
66380;SDS011;53177;52.648;1.214;2024-02-26T01:16:48;6.80;;;1.80;;
66380;SDS011;53177;52.648;1.214;2024-02-26T01:19:13;7.40;;;1.83;;
66380;SDS011;53177;52.648;1.214;2024-02-26T01:21:39;5.40;;;1.87;;
66380;SDS011;53177;52.648;1.214;2024-02-26T01:24:04;7.15;;;1.85;;
66380;SDS011;53177;52.648;1.214;2024-02-26T01:26:30;7.13;;;1.57;;
66380;SDS011;53177;52.648;1.214;2024-02-26T01:28:56;7.45;;;2.00;;
66380;SDS011;53177;52.648;1.214;2024-02-26T01:31:21;4.77;;;1.50;;
66380;SDS011;53177;52.648;1.214;2024-02-26T01:33:46;7.00;;;1.50;;
66380;SDS011;53177;52.648;1.214;2024-02-26T01:36:12;6.67;;;1.73;;
66380;SDS011;53177;52.648;1.214;2024-02-26T01:38:37;4.73;;;1.60;;
66380;SDS011;53177;52.648;1.214;2024-02-26T01:41:02;6.77;;;1.80;;
66380;SDS011;53177;52.648;1.214;2024-02-26T01:43:28;5.47;;;1.45;;
66380;SDS011;53177;52.648;1.214;2024-02-26T01:45:54;8.63;;;1.80;;
66380;SDS011;53177;52.648;1.214;2024-02-26T01:48:20;7.82;;;1.92;;
66380;SDS011;53177;52.648;1.214;2024-02-26T01:50:45;5.10;;;1.30;;
66380;SDS011;53177;52.648;1.214;2024-02-26T01:53:11;5.67;;;1.20;;
66380;SDS011;53177;52.648;1.214;2024-02-26T01:55:37;9.60;;;1.58;;
66380;SDS011;53177;52.648;1.214;2024-02-26T01:58:03;4.53;;;1.58;;
66380;SDS011;53177;52.648;1.214;2024-02-26T02:00:30;8.32;;;1.77;;
66380;SDS011;53177;52.648;1.214;2024-02-26T02:02:55;6.53;;;1.40;;
66380;SDS011;53177;52.648;1.214;2024-02-26T02:05:21;4.65;;;1.40;;
66380;SDS011;53177;52.648;1.214;2024-02-26T02:07:47;6.87;;;1.50;;
66380;SDS011;53177;52.648;1.214;2024-02-26T02:10:14;7.53;;;1.90;;
66380;SDS011;53177;52.648;1.214;2024-02-26T02:12:40;8.93;;;1.73;;
66380;SDS011;53177;52.648;1.214;2024-02-26T02:15:06;6.17;;;1.20;;
66380;SDS011;53177;52.648;1.214;2024-02-26T02:17:32;6.35;;;1.30;;
66380;SDS011;53177;52.648;1.214;2024-02-26T02:19:58;6.35;;;1.50;;
66380;SDS011;53177;52.648;1.214;2024-02-26T02:22:23;6.30;;;1.33;;
66380;SDS011;53177;52.648;1.214;2024-02-26T02:24:49;6.00;;;1.20;;
66380;SDS011;53177;52.648;1.214;2024-02-26T02:27:18;6.28;;;1.38;;
66380;SDS011;53177;52.648;1.214;2024-02-26T02:29:44;7.22;;;1.05;;
66380;SDS011;53177;52.648;1.214;2024-02-26T02:32:10;8.80;;;1.77;;
66380;SDS011;53177;52.648;1.214;2024-02-26T02:34:36;7.97;;;1.45;;
66380;SDS011;53177;52.648;1.214;2024-02-26T02:37:02;7.77;;;1.40;;
66380;SDS011;53177;52.648;1.214;2024-02-26T02:39:27;5.75;;;1.20;;
66380;SDS011;53177;52.648;1.214;2024-02-26T02:41:52;6.17;;;1.60;;
66380;SDS011;53177;52.648;1.214;2024-02-26T02:44:18;7.23;;;1.37;;
66380;SDS011;53177;52.648;1.214;2024-02-26T02:46:43;6.60;;;1.20;;
66380;SDS011;53177;52.648;1.214;2024-02-26T02:49:09;7.37;;;1.27;;
66380;SDS011;53177;52.648;1.214;2024-02-26T02:51:37;6.25;;;1.00;;
66380;SDS011;53177;52.648;1.214;2024-02-26T02:54:03;5.90;;;1.57;;
66380;SDS011;53177;52.648;1.214;2024-02-26T02:56:28;3.67;;;1.00;;
66380;SDS011;53177;52.648;1.214;2024-02-26T02:58:54;6.25;;;1.35;;
66380;SDS011;53177;52.648;1.214;2024-02-26T03:01:19;7.57;;;1.50;;
66380;SDS011;53177;52.648;1.214;2024-02-26T03:03:45;7.60;;;2.17;;
66380;SDS011;53177;52.648;1.214;2024-02-26T03:06:10;6.73;;;1.20;;
66380;SDS011;53177;52.648;1.214;2024-02-26T03:08:36;5.00;;;1.17;;
66380;SDS011;53177;52.648;1.214;2024-02-26T03:11:04;4.93;;;1.08;;
66380;SDS011;53177;52.648;1.214;2024-02-26T03:13:30;7.38;;;1.50;;
66380;SDS011;53177;52.648;1.214;2024-02-26T03:15:55;5.80;;;1.20;;
66380;SDS011;53177;52.648;1.214;2024-02-26T03:18:21;6.00;;;1.43;;
66380;SDS011;53177;52.648;1.214;2024-02-26T03:20:46;7.60;;;1.30;;
66380;SDS011;53177;52.648;1.214;2024-02-26T03:23:12;6.18;;;1.10;;
66380;SDS011;53177;52.648;1.214;2024-02-26T03:25:41;8.03;;;1.40;;
66380;SDS011;53177;52.648;1.214;2024-02-26T03:28:11;7.32;;;1.30;;
66380;SDS011;53177;52.648;1.214;2024-02-26T03:30:37;6.10;;;1.17;;
66380;SDS011;53177;52.648;1.214;2024-02-26T03:33:03;6.23;;;1.20;;
66380;SDS011;53177;52.648;1.214;2024-02-26T03:35:28;6.18;;;1.30;;
66380;SDS011;53177;52.648;1.214;2024-02-26T03:37:54;6.67;;;1.30;;
66380;SDS011;53177;52.648;1.214;2024-02-26T03:40:19;8.63;;;1.20;;
66380;SDS011;53177;52.648;1.214;2024-02-26T03:42:45;5.67;;;1.17;;
66380;SDS011;53177;52.648;1.214;2024-02-26T03:45:10;5.88;;;1.13;;
66380;SDS011;53177;52.648;1.214;2024-02-26T03:47:37;5.10;;;0.97;;
66380;SDS011;53177;52.648;1.214;2024-02-26T03:50:03;4.78;;;1.10;;
66380;SDS011;53177;52.648;1.214;2024-02-26T03:52:29;7.10;;;0.93;;
66380;SDS011;53177;52.648;1.214;2024-02-26T03:54:55;7.53;;;1.30;;
66380;SDS011;53177;52.648;1.214;2024-02-26T03:57:20;8.37;;;1.53;;
66380;SDS011;53177;52.648;1.214;2024-02-26T03:59:46;7.77;;;1.00;;
66380;SDS011;53177;52.648;1.214;2024-02-26T04:02:11;7.80;;;1.13;;
66380;SDS011;53177;52.648;1.214;2024-02-26T04:04:37;8.47;;;1.50;;
66380;SDS011;53177;52.648;1.214;2024-02-26T04:07:02;5.43;;;1.05;;
66380;SDS011;53177;52.648;1.214;2024-02-26T04:09:28;6.40;;;0.90;;
66380;SDS011;53177;52.648;1.214;2024-02-26T04:11:55;6.80;;;1.10;;
66380;SDS011;53177;52.648;1.214;2024-02-26T04:14:21;6.27;;;0.90;;
66380;SDS011;53177;52.648;1.214;2024-02-26T04:16:46;6.73;;;1.17;;
66380;SDS011;53177;52.648;1.214;2024-02-26T04:19:16;5.85;;;1.15;;
66380;SDS011;53177;52.648;1.214;2024-02-26T04:21:42;3.80;;;0.85;;
66380;SDS011;53177;52.648;1.214;2024-02-26T04:24:08;6.72;;;0.90;;
66380;SDS011;53177;52.648;1.214;2024-02-26T04:26:34;6.88;;;1.15;;
66380;SDS011;53177;52.648;1.214;2024-02-26T04:28:59;6.70;;;1.08;;
66380;SDS011;53177;52.648;1.214;2024-02-26T04:31:25;5.30;;;0.90;;
66380;SDS011;53177;52.648;1.214;2024-02-26T04:33:51;4.05;;;0.93;;
66380;SDS011;53177;52.648;1.214;2024-02-26T04:36:16;6.33;;;1.10;;
66380;SDS011;53177;52.648;1.214;2024-02-26T04:38:42;5.90;;;1.45;;
66380;SDS011;53177;52.648;1.214;2024-02-26T04:41:08;5.13;;;0.80;;
66380;SDS011;53177;52.648;1.214;2024-02-26T04:43:33;4.68;;;0.90;;
66380;SDS011;53177;52.648;1.214;2024-02-26T04:45:59;4.87;;;0.90;;
66380;SDS011;53177;52.648;1.214;2024-02-26T04:48:24;6.40;;;1.00;;
66380;SDS011;53177;52.648;1.214;2024-02-26T04:50:49;5.43;;;1.00;;
66380;SDS011;53177;52.648;1.214;2024-02-26T04:53:15;5.20;;;1.20;;
66380;SDS011;53177;52.648;1.214;2024-02-26T04:55:40;4.38;;;1.10;;
66380;SDS011;53177;52.648;1.214;2024-02-26T04:58:06;8.40;;;1.37;;
66380;SDS011;53177;52.648;1.214;2024-02-26T05:00:31;5.40;;;1.23;;
66380;SDS011;53177;52.648;1.214;2024-02-26T05:02:56;6.30;;;1.30;;
66380;SDS011;53177;52.648;1.214;2024-02-26T05:05:22;7.40;;;1.10;;
66380;SDS011;53177;52.648;1.214;2024-02-26T05:07:48;4.25;;;1.00;;
66380;SDS011;53177;52.648;1.214;2024-02-26T05:10:13;7.63;;;1.10;;
66380;SDS011;53177;52.648;1.214;2024-02-26T05:12:39;5.80;;;1.10;;
66380;SDS011;53177;52.648;1.214;2024-02-26T05:15:07;7.70;;;1.43;;
66380;SDS011;53177;52.648;1.214;2024-02-26T05:17:33;6.60;;;1.17;;
66380;SDS011;53177;52.648;1.214;2024-02-26T05:19:59;7.43;;;1.20;;
66380;SDS011;53177;52.648;1.214;2024-02-26T05:22:24;6.22;;;1.70;;
66380;SDS011;53177;52.648;1.214;2024-02-26T05:24:49;7.37;;;2.03;;
66380;SDS011;53177;52.648;1.214;2024-02-26T05:27:16;6.03;;;1.23;;
66380;SDS011;53177;52.648;1.214;2024-02-26T05:29:42;7.20;;;1.20;;
66380;SDS011;53177;52.648;1.214;2024-02-26T05:32:07;7.57;;;1.40;;
66380;SDS011;53177;52.648;1.214;2024-02-26T05:34:32;6.23;;;1.67;;
66380;SDS011;53177;52.648;1.214;2024-02-26T05:36:58;7.00;;;1.92;;
66380;SDS011;53177;52.648;1.214;2024-02-26T05:39:23;6.93;;;1.33;;
66380;SDS011;53177;52.648;1.214;2024-02-26T05:41:49;5.87;;;1.10;;
66380;SDS011;53177;52.648;1.214;2024-02-26T05:44:14;6.57;;;1.53;;
66380;SDS011;53177;52.648;1.214;2024-02-26T05:46:41;5.28;;;1.73;;
66380;SDS011;53177;52.648;1.214;2024-02-26T05:49:07;5.25;;;1.30;;
66380;SDS011;53177;52.648;1.214;2024-02-26T05:51:32;5.00;;;1.20;;
66380;SDS011;53177;52.648;1.214;2024-02-26T05:53:58;6.67;;;1.40;;
66380;SDS011;53177;52.648;1.214;2024-02-26T05:56:23;7.33;;;1.97;;
66380;SDS011;53177;52.648;1.214;2024-02-26T05:58:48;9.55;;;1.58;;
66380;SDS011;53177;52.648;1.214;2024-02-26T06:01:17;6.70;;;1.40;;
66380;SDS011;53177;52.648;1.214;2024-02-26T06:03:43;4.53;;;1.30;;
66380;SDS011;53177;52.648;1.214;2024-02-26T06:06:10;6.30;;;1.50;;
66380;SDS011;53177;52.648;1.214;2024-02-26T06:08:40;6.88;;;1.40;;
66380;SDS011;53177;52.648;1.214;2024-02-26T06:11:08;7.72;;;1.30;;
66380;SDS011;53177;52.648;1.214;2024-02-26T06:13:34;6.68;;;1.35;;
66380;SDS011;53177;52.648;1.214;2024-02-26T06:16:00;7.75;;;1.50;;
66380;SDS011;53177;52.648;1.214;2024-02-26T06:18:25;6.27;;;1.30;;
66380;SDS011;53177;52.648;1.214;2024-02-26T06:20:51;3.70;;;1.05;;
66380;SDS011;53177;52.648;1.214;2024-02-26T06:23:17;4.87;;;1.00;;
66380;SDS011;53177;52.648;1.214;2024-02-26T06:25:42;4.47;;;1.00;;
66380;SDS011;53177;52.648;1.214;2024-02-26T06:28:08;5.57;;;1.20;;
66380;SDS011;53177;52.648;1.214;2024-02-26T06:30:33;6.80;;;1.30;;
66380;SDS011;53177;52.648;1.214;2024-02-26T06:33:00;6.00;;;1.27;;
66380;SDS011;53177;52.648;1.214;2024-02-26T06:35:26;4.57;;;1.00;;
66380;SDS011;53177;52.648;1.214;2024-02-26T06:37:51;6.38;;;1.20;;
66380;SDS011;53177;52.648;1.214;2024-02-26T06:40:20;4.57;;;0.75;;
66380;SDS011;53177;52.648;1.214;2024-02-26T06:42:46;4.57;;;1.00;;
66380;SDS011;53177;52.648;1.214;2024-02-26T06:45:11;5.10;;;0.80;;
66380;SDS011;53177;52.648;1.214;2024-02-26T06:47:39;6.30;;;0.80;;
66380;SDS011;53177;52.648;1.214;2024-02-26T06:50:05;7.20;;;1.25;;
66380;SDS011;53177;52.648;1.214;2024-02-26T06:52:30;5.77;;;1.00;;
66380;SDS011;53177;52.648;1.214;2024-02-26T06:54:56;5.45;;;0.85;;
66380;SDS011;53177;52.648;1.214;2024-02-26T06:57:21;6.38;;;0.80;;
66380;SDS011;53177;52.648;1.214;2024-02-26T06:59:47;6.83;;;1.10;;
66380;SDS011;53177;52.648;1.214;2024-02-26T07:02:13;5.30;;;1.10;;
66380;SDS011;53177;52.648;1.214;2024-02-26T07:04:39;5.95;;;1.40;;
66380;SDS011;53177;52.648;1.214;2024-02-26T07:07:05;9.18;;;1.25;;
66380;SDS011;53177;52.648;1.214;2024-02-26T07:09:31;6.77;;;0.90;;
66380;SDS011;53177;52.648;1.214;2024-02-26T07:11:56;7.87;;;0.90;;
66380;SDS011;53177;52.648;1.214;2024-02-26T07:14:21;7.10;;;1.05;;
66380;SDS011;53177;52.648;1.214;2024-02-26T07:16:47;8.23;;;1.87;;
66380;SDS011;53177;52.648;1.214;2024-02-26T07:19:13;9.87;;;1.20;;
66380;SDS011;53177;52.648;1.214;2024-02-26T07:21:38;5.63;;;1.00;;
66380;SDS011;53177;52.648;1.214;2024-02-26T07:24:04;5.82;;;1.17;;
66380;SDS011;53177;52.648;1.214;2024-02-26T07:26:30;5.57;;;0.90;;
66380;SDS011;53177;52.648;1.214;2024-02-26T07:28:55;7.70;;;0.98;;
66380;SDS011;53177;52.648;1.214;2024-02-26T07:31:21;10.10;;;2.23;;
66380;SDS011;53177;52.648;1.214;2024-02-26T07:33:46;8.37;;;1.87;;
66380;SDS011;53177;52.648;1.214;2024-02-26T07:36:12;7.87;;;1.20;;
66380;SDS011;53177;52.648;1.214;2024-02-26T07:38:37;4.47;;;0.90;;
66380;SDS011;53177;52.648;1.214;2024-02-26T07:41:03;9.00;;;1.57;;
66380;SDS011;53177;52.648;1.214;2024-02-26T07:43:28;7.80;;;1.30;;
66380;SDS011;53177;52.648;1.214;2024-02-26T07:45:54;4.70;;;0.93;;
66380;SDS011;53177;52.648;1.214;2024-02-26T07:48:20;6.55;;;1.00;;
66380;SDS011;53177;52.648;1.214;2024-02-26T07:50:45;5.28;;;1.35;;
66380;SDS011;53177;52.648;1.214;2024-02-26T07:53:11;8.10;;;1.20;;
66380;SDS011;53177;52.648;1.214;2024-02-26T07:55:36;4.03;;;0.90;;
66380;SDS011;53177;52.648;1.214;2024-02-26T07:58:01;7.83;;;1.30;;
66380;SDS011;53177;52.648;1.214;2024-02-26T08:00:27;5.57;;;0.80;;
66380;SDS011;53177;52.648;1.214;2024-02-26T08:02:53;6.37;;;1.17;;
66380;SDS011;53177;52.648;1.214;2024-02-26T08:05:19;6.03;;;1.20;;
66380;SDS011;53177;52.648;1.214;2024-02-26T08:07:44;5.30;;;1.00;;
66380;SDS011;53177;52.648;1.214;2024-02-26T08:10:10;6.07;;;0.87;;
66380;SDS011;53177;52.648;1.214;2024-02-26T08:12:36;5.50;;;0.93;;
66380;SDS011;53177;52.648;1.214;2024-02-26T08:15:01;4.23;;;0.90;;
66380;SDS011;53177;52.648;1.214;2024-02-26T08:17:27;7.10;;;0.90;;
66380;SDS011;53177;52.648;1.214;2024-02-26T08:19:53;7.70;;;1.10;;
66380;SDS011;53177;52.648;1.214;2024-02-26T08:22:18;6.23;;;0.90;;
66380;SDS011;53177;52.648;1.214;2024-02-26T08:24:44;4.28;;;0.80;;
66380;SDS011;53177;52.648;1.214;2024-02-26T08:27:09;6.63;;;0.90;;
66380;SDS011;53177;52.648;1.214;2024-02-26T08:29:35;7.75;;;1.20;;
66380;SDS011;53177;52.648;1.214;2024-02-26T08:32:01;7.10;;;1.33;;
66380;SDS011;53177;52.648;1.214;2024-02-26T08:34:26;8.77;;;1.63;;
66380;SDS011;53177;52.648;1.214;2024-02-26T08:36:52;5.00;;;0.85;;
66380;SDS011;53177;52.648;1.214;2024-02-26T08:39:17;6.73;;;1.00;;
66380;SDS011;53177;52.648;1.214;2024-02-26T08:41:43;8.40;;;1.30;;
66380;SDS011;53177;52.648;1.214;2024-02-26T08:44:09;7.05;;;1.35;;
66380;SDS011;53177;52.648;1.214;2024-02-26T08:46:35;8.25;;;1.05;;
66380;SDS011;53177;52.648;1.214;2024-02-26T08:49:01;8.17;;;1.20;;
66380;SDS011;53177;52.648;1.214;2024-02-26T08:51:26;8.37;;;1.43;;
66380;SDS011;53177;52.648;1.214;2024-02-26T08:53:52;9.77;;;1.03;;
66380;SDS011;53177;52.648;1.214;2024-02-26T08:56:18;6.93;;;1.00;;
66380;SDS011;53177;52.648;1.214;2024-02-26T08:58:46;8.18;;;1.30;;
66380;SDS011;53177;52.648;1.214;2024-02-26T09:01:13;5.95;;;0.98;;
66380;SDS011;53177;52.648;1.214;2024-02-26T09:03:39;7.30;;;1.43;;
66380;SDS011;53177;52.648;1.214;2024-02-26T09:06:05;7.68;;;1.10;;
66380;SDS011;53177;52.648;1.214;2024-02-26T09:08:31;6.97;;;0.90;;
66380;SDS011;53177;52.648;1.214;2024-02-26T09:10:57;4.85;;;0.93;;
66380;SDS011;53177;52.648;1.214;2024-02-26T09:13:23;8.03;;;1.27;;
66380;SDS011;53177;52.648;1.214;2024-02-26T09:15:48;9.27;;;1.35;;
66380;SDS011;53177;52.648;1.214;2024-02-26T09:18:14;7.97;;;1.10;;
66380;SDS011;53177;52.648;1.214;2024-02-26T09:20:40;6.75;;;1.15;;
66380;SDS011;53177;52.648;1.214;2024-02-26T09:23:06;8.47;;;1.30;;
66380;SDS011;53177;52.648;1.214;2024-02-26T09:25:31;7.35;;;1.20;;
66380;SDS011;53177;52.648;1.214;2024-02-26T09:27:58;6.63;;;1.00;;
66380;SDS011;53177;52.648;1.214;2024-02-26T09:30:24;8.75;;;1.10;;
66380;SDS011;53177;52.648;1.214;2024-02-26T09:32:49;7.47;;;1.20;;
66380;SDS011;53177;52.648;1.214;2024-02-26T09:35:15;7.07;;;1.52;;
66380;SDS011;53177;52.648;1.214;2024-02-26T09:37:41;7.23;;;1.50;;
66380;SDS011;53177;52.648;1.214;2024-02-26T09:40:09;10.00;;;1.45;;
66380;SDS011;53177;52.648;1.214;2024-02-26T09:42:36;8.35;;;1.30;;
66380;SDS011;53177;52.648;1.214;2024-02-26T09:45:07;5.37;;;1.00;;
66380;SDS011;53177;52.648;1.214;2024-02-26T09:47:37;5.43;;;1.10;;
66380;SDS011;53177;52.648;1.214;2024-02-26T09:50:04;7.68;;;1.20;;
66380;SDS011;53177;52.648;1.214;2024-02-26T09:52:34;5.43;;;1.10;;
66380;SDS011;53177;52.648;1.214;2024-02-26T09:55:02;6.45;;;1.13;;
66380;SDS011;53177;52.648;1.214;2024-02-26T09:57:29;6.77;;;1.77;;
66380;SDS011;53177;52.648;1.214;2024-02-26T09:59:55;5.85;;;1.20;;
66380;SDS011;53177;52.648;1.214;2024-02-26T10:02:28;5.45;;;1.00;;
66380;SDS011;53177;52.648;1.214;2024-02-26T10:04:55;9.65;;;1.55;;
66380;SDS011;53177;52.648;1.214;2024-02-26T10:07:22;6.88;;;1.15;;
66380;SDS011;53177;52.648;1.214;2024-02-26T10:09:48;7.40;;;1.27;;
66380;SDS011;53177;52.648;1.214;2024-02-26T10:12:13;5.83;;;1.20;;
66380;SDS011;53177;52.648;1.214;2024-02-26T10:14:42;4.22;;;0.85;;
66380;SDS011;53177;52.648;1.214;2024-02-26T10:17:07;6.70;;;1.00;;
66380;SDS011;53177;52.648;1.214;2024-02-26T10:19:34;7.40;;;1.20;;
66380;SDS011;53177;52.648;1.214;2024-02-26T10:22:00;7.83;;;1.30;;
66380;SDS011;53177;52.648;1.214;2024-02-26T10:24:26;6.40;;;1.10;;
66380;SDS011;53177;52.648;1.214;2024-02-26T10:26:53;5.70;;;1.02;;
66380;SDS011;53177;52.648;1.214;2024-02-26T10:29:19;7.57;;;1.25;;
66380;SDS011;53177;52.648;1.214;2024-02-26T10:31:46;8.97;;;1.13;;
66380;SDS011;53177;52.648;1.214;2024-02-26T10:34:11;5.68;;;0.85;;
66380;SDS011;53177;52.648;1.214;2024-02-26T10:36:37;6.70;;;1.23;;
66380;SDS011;53177;52.648;1.214;2024-02-26T10:39:06;6.67;;;1.20;;
66380;SDS011;53177;52.648;1.214;2024-02-26T10:41:32;5.10;;;0.93;;
66380;SDS011;53177;52.648;1.214;2024-02-26T10:43:58;4.15;;;0.70;;
66380;SDS011;53177;52.648;1.214;2024-02-26T10:46:24;8.07;;;1.00;;
66380;SDS011;53177;52.648;1.214;2024-02-26T10:48:51;6.67;;;1.10;;
66380;SDS011;53177;52.648;1.214;2024-02-26T10:51:26;6.75;;;1.35;;
66380;SDS011;53177;52.648;1.214;2024-02-26T10:53:57;8.18;;;1.33;;
66380;SDS011;53177;52.648;1.214;2024-02-26T10:56:27;6.28;;;1.50;;
66380;SDS011;53177;52.648;1.214;2024-02-26T10:58:57;6.85;;;1.15;;
66380;SDS011;53177;52.648;1.214;2024-02-26T11:01:23;6.60;;;1.07;;
66380;SDS011;53177;52.648;1.214;2024-02-26T11:03:51;4.20;;;0.90;;
66380;SDS011;53177;52.648;1.214;2024-02-26T11:06:17;6.38;;;1.20;;
66380;SDS011;53177;52.648;1.214;2024-02-26T11:08:47;7.18;;;1.40;;
66380;SDS011;53177;52.648;1.214;2024-02-26T11:11:14;8.75;;;1.15;;
66380;SDS011;53177;52.648;1.214;2024-02-26T11:13:45;8.07;;;1.40;;
66380;SDS011;53177;52.648;1.214;2024-02-26T11:16:20;8.50;;;1.02;;
66380;SDS011;53177;52.648;1.214;2024-02-26T11:18:47;4.80;;;0.95;;
66380;SDS011;53177;52.648;1.214;2024-02-26T11:21:16;7.13;;;1.00;;
66380;SDS011;53177;52.648;1.214;2024-02-26T11:23:52;6.63;;;1.20;;
66380;SDS011;53177;52.648;1.214;2024-02-26T11:26:18;6.73;;;1.27;;
66380;SDS011;53177;52.648;1.214;2024-02-26T11:28:46;7.63;;;1.08;;
66380;SDS011;53177;52.648;1.214;2024-02-26T11:31:13;7.38;;;1.20;;
66380;SDS011;53177;52.648;1.214;2024-02-26T11:33:39;7.85;;;1.33;;
66380;SDS011;53177;52.648;1.214;2024-02-26T11:36:08;7.23;;;1.20;;
66380;SDS011;53177;52.648;1.214;2024-02-26T11:38:35;8.77;;;1.25;;
66380;SDS011;53177;52.648;1.214;2024-02-26T11:41:01;6.43;;;1.10;;
66380;SDS011;53177;52.648;1.214;2024-02-26T11:46:29;8.02;;;1.10;;
66380;SDS011;53177;52.648;1.214;2024-02-26T11:48:56;6.97;;;1.17;;
66380;SDS011;53177;52.648;1.214;2024-02-26T11:51:27;7.53;;;1.13;;
66380;SDS011;53177;52.648;1.214;2024-02-26T11:53:57;9.55;;;1.55;;
66380;SDS011;53177;52.648;1.214;2024-02-26T11:56:23;8.70;;;1.47;;
66380;SDS011;53177;52.648;1.214;2024-02-26T11:58:58;5.78;;;1.30;;
66380;SDS011;53177;52.648;1.214;2024-02-26T12:01:44;6.30;;;0.90;;
66380;SDS011;53177;52.648;1.214;2024-02-26T12:06:43;5.40;;;1.10;;
66380;SDS011;53177;52.648;1.214;2024-02-26T12:09:11;6.87;;;0.97;;
66380;SDS011;53177;52.648;1.214;2024-02-26T12:11:38;7.93;;;1.15;;
66380;SDS011;53177;52.648;1.214;2024-02-26T12:14:05;8.23;;;0.90;;
66380;SDS011;53177;52.648;1.214;2024-02-26T12:16:35;6.13;;;1.10;;
66380;SDS011;53177;52.648;1.214;2024-02-26T12:19:05;6.43;;;1.00;;
66380;SDS011;53177;52.648;1.214;2024-02-26T12:21:35;6.50;;;1.00;;
66380;SDS011;53177;52.648;1.214;2024-02-26T12:24:11;7.18;;;1.00;;
66380;SDS011;53177;52.648;1.214;2024-02-26T12:26:38;10.60;;;1.60;;
66380;SDS011;53177;52.648;1.214;2024-02-26T12:29:04;8.25;;;1.20;;
66380;SDS011;53177;52.648;1.214;2024-02-26T12:31:31;6.13;;;1.20;;
66380;SDS011;53177;52.648;1.214;2024-02-26T12:33:57;7.15;;;1.52;;
66380;SDS011;53177;52.648;1.214;2024-02-26T12:36:24;5.53;;;1.15;;
66380;SDS011;53177;52.648;1.214;2024-02-26T12:38:50;5.93;;;1.20;;
66380;SDS011;53177;52.648;1.214;2024-02-26T12:41:16;5.68;;;1.30;;
66380;SDS011;53177;52.648;1.214;2024-02-26T12:43:42;6.28;;;1.00;;
66380;SDS011;53177;52.648;1.214;2024-02-26T12:46:07;4.90;;;1.03;;
66380;SDS011;53177;52.648;1.214;2024-02-26T12:48:33;7.83;;;1.70;;
66380;SDS011;53177;52.648;1.214;2024-02-26T12:50:58;5.90;;;1.00;;
66380;SDS011;53177;52.648;1.214;2024-02-26T12:53:25;7.83;;;1.10;;
66380;SDS011;53177;52.648;1.214;2024-02-26T12:55:52;9.88;;;1.40;;
66380;SDS011;53177;52.648;1.214;2024-02-26T12:58:18;6.57;;;1.00;;
66380;SDS011;53177;52.648;1.214;2024-02-26T13:00:45;6.38;;;1.35;;
66380;SDS011;53177;52.648;1.214;2024-02-26T13:03:12;7.93;;;1.13;;
66380;SDS011;53177;52.648;1.214;2024-02-26T13:05:38;5.17;;;0.90;;
66380;SDS011;53177;52.648;1.214;2024-02-26T13:08:05;5.35;;;0.95;;
66380;SDS011;53177;52.648;1.214;2024-02-26T13:10:31;6.15;;;1.08;;
66380;SDS011;53177;52.648;1.214;2024-02-26T13:12:56;6.70;;;1.37;;
66380;SDS011;53177;52.648;1.214;2024-02-26T13:15:22;5.95;;;1.05;;
66380;SDS011;53177;52.648;1.214;2024-02-26T13:17:48;6.33;;;1.20;;
66380;SDS011;53177;52.648;1.214;2024-02-26T13:20:27;10.43;;;1.50;;
66380;SDS011;53177;52.648;1.214;2024-02-26T13:25:28;9.10;;;1.20;;
66380;SDS011;53177;52.648;1.214;2024-02-26T13:28:03;6.60;;;1.03;;
66380;SDS011;53177;52.648;1.214;2024-02-26T13:30:49;5.50;;;0.90;;
66380;SDS011;53177;52.648;1.214;2024-02-26T13:33:18;5.90;;;1.00;;
66380;SDS011;53177;52.648;1.214;2024-02-26T13:35:44;7.72;;;1.42;;
66380;SDS011;53177;52.648;1.214;2024-02-26T13:38:10;5.33;;;1.00;;
66380;SDS011;53177;52.648;1.214;2024-02-26T13:40:36;6.82;;;1.30;;
66380;SDS011;53177;52.648;1.214;2024-02-26T13:43:01;8.50;;;1.73;;
66380;SDS011;53177;52.648;1.214;2024-02-26T13:45:28;8.15;;;1.38;;
66380;SDS011;53177;52.648;1.214;2024-02-26T13:47:53;6.37;;;1.40;;
66380;SDS011;53177;52.648;1.214;2024-02-26T13:50:19;8.75;;;1.30;;
66380;SDS011;53177;52.648;1.214;2024-02-26T13:52:46;7.65;;;1.30;;
66380;SDS011;53177;52.648;1.214;2024-02-26T13:55:12;9.43;;;1.17;;
66380;SDS011;53177;52.648;1.214;2024-02-26T13:57:39;6.28;;;1.17;;
66380;SDS011;53177;52.648;1.214;2024-02-26T14:00:05;9.30;;;1.40;;
66380;SDS011;53177;52.648;1.214;2024-02-26T14:02:31;6.15;;;0.98;;
66380;SDS011;53177;52.648;1.214;2024-02-26T14:04:56;7.33;;;1.10;;
66380;SDS011;53177;52.648;1.214;2024-02-26T14:07:22;8.57;;;1.60;;
66380;SDS011;53177;52.648;1.214;2024-02-26T14:09:47;5.67;;;1.33;;
66380;SDS011;53177;52.648;1.214;2024-02-26T14:12:13;7.17;;;1.10;;
66380;SDS011;53177;52.648;1.214;2024-02-26T14:14:38;7.07;;;1.10;;
66380;SDS011;53177;52.648;1.214;2024-02-26T14:17:05;7.47;;;1.30;;
66380;SDS011;53177;52.648;1.214;2024-02-26T14:19:31;8.48;;;1.50;;
66380;SDS011;53177;52.648;1.214;2024-02-26T14:21:57;9.77;;;1.63;;
66380;SDS011;53177;52.648;1.214;2024-02-26T14:24:22;7.97;;;1.20;;
66380;SDS011;53177;52.648;1.214;2024-02-26T14:26:47;7.23;;;1.10;;
66380;SDS011;53177;52.648;1.214;2024-02-26T14:29:13;8.90;;;1.40;;
66380;SDS011;53177;52.648;1.214;2024-02-26T14:31:39;8.02;;;1.15;;
66380;SDS011;53177;52.648;1.214;2024-02-26T14:34:04;8.90;;;1.30;;
66380;SDS011;53177;52.648;1.214;2024-02-26T14:36:30;8.68;;;1.23;;
66380;SDS011;53177;52.648;1.214;2024-02-26T14:38:55;8.90;;;1.20;;
66380;SDS011;53177;52.648;1.214;2024-02-26T14:41:21;7.90;;;1.20;;
66380;SDS011;53177;52.648;1.214;2024-02-26T14:43:46;6.22;;;1.20;;
66380;SDS011;53177;52.648;1.214;2024-02-26T14:46:12;7.38;;;1.20;;
66380;SDS011;53177;52.648;1.214;2024-02-26T14:48:37;6.07;;;1.00;;
66380;SDS011;53177;52.648;1.214;2024-02-26T14:51:02;8.37;;;1.20;;